メインページ
METAR-TAF:

METAR-TAF

空港 :

ザグレブ国際空港

ザグレブ, クロアチア

緯度: 45-44N, 経度: 016-04E, 海抜: 106m

現時点の気象観測

当レポートは25分前の06:00(UTC)に作成
変向風 1kt
気温 -2°C
湿度 93%
気圧 1014 hPa
視程: 0500m
着氷性の霧

METAR: LDZA 150600Z VRB01KT 0500 R05/0500N R23/0600U FZFG NSC M02/M03 Q1014 BECMG 0200 VV001

時間: 07:25 (06:25 UTC)

予報

当レポートは1時間0分前の05:25(UTC)に作成
予報は15日の 06時(UTC)から 16日の 06時(UTC)まで有効
変向風 2kt
視程: 0600m
着氷性の霧
確率 40%
15日の 06時(UTC)から 15日の 09時(UTC)まで
視程: 0200m
高度100ftの
15日の 09時(UTC)から 15日の 12時(UTC)まで一時的に
視程: 3000m
高度400ftの千切れ雲あり
15日の 10時(UTC)から 15日の 12時(UTC)まで徐々に
南西の風 10kt
視程10km以上
1,500メートル以下は雲なし、積乱雲なし
16日の 00時(UTC)から 16日の 02時(UTC)まで徐々に
南西の風 6kt

TAF: LDZA 150525Z 1506/1606 VRB02KT 0600 FZFG NSC TX09/1513Z TNM03/1506Z PROB40 1506/1509 0200 VV001 TEMPO 1509/1512 3000 BR BKN004 BECMG 1510/1512 23010KT CAVOK BECMG 1600/1602 23006KT

4,000以上の空港の気象観測と天気予報(METAR報とTAF報)

利用可能な観測所は地図上に黄色い丸と赤い丸で示す。

丸の上にカーソルを重ねると観測所名を参照できる。

次にクリックすると気象観測と天気予報を参照できる。

マップの切り替え:黒色「×」印の緑ボタンをクリックして拡大、「-」印の緑ボタンをクリックして縮小、緑色の三角印をクリックして隣りの地図に切り替え


METAR-TAF: